Rachel, Nevada Weather observations

Data are for observation ending at time listed.
 Day   Time    Ave.   Ave.  Ave.  Vector   Max.   Stn.    Total    Solar   Ave.  
  of    of     Air    Rel.  Wind   Wind    Wind   Baro.  Precip.   Rad.    Soil  
Year   Day     Temp.  Hum.  Speed  Dir.    Gust   Pres.                    Temp. 
2015   (PST)    F      %     mph   deg.    mph     mb.     in.     W/m2     F   
------------------------------------------------------------------------------
 115   17:00   50.5    54    8.0    48     10.8   841.3    0.00      88    51.2
 115   17:10   50.3    55    9.4    38     12.6   841.3    0.00      83    51.2
 115   17:20   50.1    57    9.2    42     11.9   841.3    0.00      55    51.1
 115   17:30   49.7    58    9.3    35     11.9   841.5    0.00      27    51.0
 115   17:40   49.3    60    8.8    26     11.4   841.6    0.00      15    50.9
 115   17:50   49.1    62    8.3    28     10.8   841.7    0.00      13    50.8
 115   18:00   48.9    62    7.8    39      9.9   841.9    0.00      10    50.7
 115   18:10   48.3    67    6.7    43      9.5   842.0    0.00       4    50.7
 115   18:20   47.2    67   14.9   352     23.0   842.2    0.00       3    50.5
 115   18:30   45.2    74    8.1   342     15.6   842.3    0.00       3    50.0
 115   18:40   45.0    77    9.4   334     21.0   842.3    0.00       2    49.9
 115   18:50   44.7    75   16.8   335     22.2   842.3    0.00       0    49.7
 115   19:00   44.3    75   15.6   328     20.2   842.2    0.00       0    49.6
 115   19:10   44.2    74   11.9   317     16.3   842.2    0.00       0    49.4
 115   19:20   43.8    76   13.9   313     20.3   842.4    0.00       0    49.3
 115   19:30   43.1    78   15.2   306     18.1   842.5    0.00       0    49.2
 115   19:40   43.0    77   14.1   311     18.0   842.6    0.00       0    49.0
 115   19:50   43.0    77   13.6   315     17.7   842.6    0.00       0    48.8
 115   20:00   43.1    76   11.9   312     15.3   842.7    0.00       0    48.8
 115   20:10   43.0    76   11.3   315     14.3   842.7    0.00       0    48.6
 115   20:20   42.8    76   10.6   316     13.5   842.8    0.00       0    48.7
 115   20:30   42.3    77   11.4   312     14.6   842.9    0.00       0    48.4
 115   20:40   42.0    77    4.9    68      9.9   843.0    0.00       0    48.2
 115   20:50   42.2    76    1.9    15      7.3   843.1    0.00       0    48.2
 115   21:00   42.2    74    3.6    39     12.1   843.1    0.00       0    48.2
 115   21:10   43.2    68    4.3    22      9.3   843.1    0.00       0    47.9
 115   21:20   43.7    66    4.1     5      7.9   843.2    0.00       0    47.9
 115   21:30   42.2    72    4.0   302      8.0   843.3    0.00       0    47.9
 115   21:40   40.7    77    3.1   275      5.3   843.3    0.00       0    47.7
 115   21:50   39.5    79    6.0   306     14.9   843.3    0.00       0    47.6
 115   22:00   41.5    72   11.8   332     16.2   843.3    0.00       0    47.4
 115   22:10   41.1    72    5.4   354     12.8   843.4    0.00       0    47.2
 115   22:20   40.5    74    7.6   324     10.9   843.5    0.00       0    47.0
 115   22:30   40.3    73    9.4   324     12.1   843.4    0.00       0    46.9
 115   22:40   40.0    73    8.4   324     10.4   843.5    0.00       0    46.8
 115   22:50   38.4    76    4.4   308      8.0   843.8    0.00       0    46.6
 115   23:00   37.2    78    5.4   297      8.6   843.9    0.00       0    46.6
 115   23:10   36.9    79    8.0   308     11.8   843.9    0.00       0    46.4
 115   23:20   39.0    72    9.3   307     13.2   843.9    0.00       0    46.1
 115   23:30   37.1    81    7.0   279     10.7   843.8    0.00       0    46.0
 115   23:40   37.0    81    9.7   283     12.9   843.8    0.00       0    45.9
 115   23:50   36.4    82    8.7   276     11.2   843.8    0.00       0    45.7
 116    0:00   35.7    83    9.2   285     13.4   843.8    0.00       0    45.5
 116    0:10   37.0    77   11.1   304     14.0   843.8    0.00       0    45.3
 116    0:20   37.9    74   13.4   303     17.8   843.8    0.00       0    45.2
 116    0:30   37.8    74   11.3   302     15.0   844.0    0.00       0    45.0
 116    0:40   37.9    74   11.1   295     15.8   844.1    0.00       0    45.0
 116    0:50   38.1    73   11.4   294     15.2   844.2    0.00       0    44.9
 116    1:00   37.6    75    8.5   281     13.7   844.3    0.00       0    44.8
 116    1:10   36.3    78    8.3   268     12.6   844.4    0.00       0    44.8
 116    1:20   36.5    78    8.4   270     11.5   844.4    0.00       0    44.7
 116    1:30   36.8    77    9.1   265     12.3   844.2    0.00       0    44.6
 116    1:40   37.1    76    9.0   261     12.3   844.3    0.00       0    44.5
 116    1:50   37.0    76    8.1   258     13.0   844.4    0.00       0    44.4
 116    2:00   37.8    72    7.8   257     11.6   844.5    0.00       0    44.4
 116    2:10   38.4    69   10.7   255     14.5   844.4    0.00       0    44.4
 116    2:20   37.9    70   13.4   255     19.4   844.4    0.00       0    44.3
 116    2:30   37.7    71    9.9   275     14.9   844.5    0.00       0    44.2
 116    2:40   37.9    69   10.6   283     18.0   844.5    0.00       0    44.1
 116    2:50   39.9    60   10.2   291     16.4   844.6    0.00       0    44.0
 116    3:00   39.5    62    9.9   298     15.1   844.7    0.00       0    44.0
 116    3:10   39.4    61   13.5   299     17.0   844.8    0.00       0    43.9
 116    3:20   38.1    65   13.9   293     19.7   844.8    0.00       0    43.8
 116    3:30   38.9    62   13.1   304     17.0   844.9    0.00       0    43.6
 116    3:40   37.9    66   10.9   307     14.5   845.0    0.00       0    43.5
 116    3:50   37.4    68   15.3   308     17.9   845.0    0.00       0    43.4
 116    4:00   37.4    68   16.4   306     20.1   845.0    0.00       0    43.2
 116    4:10   37.4    68   18.3   308     21.1   845.0    0.00       0    43.1
 116    4:20   37.0    69   15.2   303     18.0   845.2    0.00       0    42.9
 116    4:30   36.8    70   12.8   302     15.1   845.4    0.00       0    42.9
 116    4:40   36.4    71   11.9   305     14.4   845.5    0.00       0    42.8
 116    4:50   36.6    71    9.8   286     14.1   845.8    0.00       1    42.8
 116    5:00   37.6    68    8.9   288     13.5   845.9    0.00       3    42.8
 116    5:10   38.6    65    7.8   295     11.0   846.0    0.00       7    42.9
 116    5:20   38.4    67    8.4   298     10.9   846.2    0.00      29    43.0
 116    5:30   39.6    64   10.0   294     15.3   846.4    0.00      46    43.3
 116    5:40   39.7    64   11.1   310     15.1   846.7    0.00      50    43.5
 116    5:50   40.8    59   11.0   316     15.9   846.8    0.00      37    43.6
 116    6:00   40.8    59    8.8   309     12.5   847.1    0.00      45    43.7
 116    6:10   42.0    54    8.6   318     20.2   847.2    0.00      38    43.7
 116    6:20   41.5    57    9.8   295     16.1   847.3    0.00      34    43.9
 116    6:30   41.1    59   10.2   318     16.7   847.5    0.00      89    43.8
 116    6:40   42.7    57   11.2   321     19.3   847.7    0.00     218    44.2
 116    6:50   44.1    54   15.6   352     21.0   847.8    0.00     252    44.6
 116    7:00   44.6    53   18.2   356     24.8   848.0    0.00     281    44.8
 116    7:10   44.9    52   21.4   357     28.4   848.2    0.00     254    45.0
 116    7:20   45.0    49   26.1   354     35.4   848.3    0.00     292    45.2
 116    7:30   45.6    48   22.0   355     29.6   848.5    0.00     294    45.7
 116    7:40   44.8    49   20.2     4     27.8   848.9    0.00     188    45.9
 116    7:50   45.4    49   19.5     5     27.4   848.9    0.00     289    46.0
 116    8:00   45.4    47   12.3    23     20.2   849.1    0.00     216    46.3
 116    8:10   45.8    46   14.3    17     24.1   849.0    0.00     170    46.5
 116    8:20   45.5    45   14.6    20     24.9   848.9    0.00     169    46.5
 116    8:30   45.7    41   18.6    12     26.4   849.0    0.00     108    46.5
 116    8:40   46.0    37   21.8     8     31.0   849.1    0.00     163    46.5
 116    8:50   46.9    36   21.2     6     30.5   849.2    0.00     436    46.7
 116    9:00   48.1    34   23.1     1     30.5   849.2    0.00     524    47.4
 116    9:10   49.0    33   25.6   359     33.2   849.2    0.00     592    48.2
 116    9:20   49.1    33   23.0   355     33.8   849.2    0.00     571    48.8
 116    9:30   50.0    32   23.9   359     33.2   849.5    0.00     633    49.4
 116    9:40   50.6    30   24.9   356     32.4   849.7    0.00     648    49.9
 116    9:50   50.8    30   23.5     2     32.2   850.0    0.00     663    50.0
 116   10:00   51.7    30   21.6     7     28.7   850.2    0.00     670    50.2
 116   10:10   51.8    28   23.7    10     33.0   850.3    0.00     673    50.5
 116   10:20   51.8    28   23.5   356     33.8   850.3    0.00     683    50.7
 116   10:30   51.9    27   23.2     4     32.3   850.3    0.00     695    51.0
 116   10:40   52.4    27   24.4     3     33.0   850.3    0.00     703    51.3
 116   10:50   52.5    27   20.2     5     29.1   850.4    0.00     703    51.7
 116   11:00   53.2    27   22.7     3     31.6   850.5    0.00     706    52.0
 116   11:10   53.3    25   23.3   357     33.8   850.4    0.00     715    52.3
 116   11:20   54.2    24   22.6     6     30.3   850.3    0.00     718    52.6
 116   11:30   54.1    23   25.5   358     33.5   850.4    0.00     716    52.9
 116   11:40   54.1    23   25.8     8     37.3   850.6    0.00     719    53.1
 116   11:50   55.0    22   24.1     5     36.0   850.7    0.00     715    53.3
 116   12:00   54.7    22   25.2   356     36.5   850.7    0.00     714    53.5
 116   12:10   54.2    23   24.0   354     34.2   850.6    0.00     714    53.7
 116   12:20   54.7    23   22.6   359     36.2   850.5    0.00     710    53.9
 116   12:30   55.2    22   22.9     1     31.1   850.6    0.00     709    54.0
 116   12:40   55.1    22   23.5     1     31.4   850.6    0.00     702    54.2
 116   12:50   56.1    22   19.0     5     32.9   850.6    0.00     675    54.4
 116   13:00   56.1    21   22.1     3     30.9   850.6    0.00     684    54.6
 116   13:10   56.4    21   21.8   358     31.2   850.7    0.00     672    54.8
 116   13:20   55.7    21   19.5    25     29.7   850.8    0.00     662    54.9
 116   13:30   56.6    20   21.5    16     31.4   850.8    0.00     648    55.0
 116   13:40   56.3    21   22.4     8     31.6   850.9    0.00     632    55.1
 116   13:50   56.5    21   22.5     8     30.0   850.8    0.00     609    55.1
 116   14:00   56.8    20   19.2     7     31.6   850.8    0.00     591    55.2
 116   14:10   56.9    20   20.9     4     31.4   850.6    0.00     586    55.4
 116   14:20   57.4    20   21.7    20     31.4   850.7    0.00     570    55.5
 116   14:30   57.2    19   20.9    13     28.7   850.7    0.00     554    55.6
 116   14:40   57.8    19   22.2    15     30.0   850.7    0.00     539    55.6
 116   14:50   57.5    19   20.4     8     28.4   850.8    0.00     512    55.7
 116   15:00   57.5    19   20.0     2     30.4   850.7    0.00     516    55.8
 116   15:10   57.2    19   20.5    10     30.0   850.8    0.00     443    55.8
 116   15:20   57.2    19   20.3    17     26.9   850.9    0.00     448    55.8
 116   15:30   57.9    19   19.2    15     28.6   850.9    0.00     429    55.8
 116   15:40   57.5    19   16.6    29     26.5   850.9    0.00     406    55.9
 116   15:50   57.4    20   15.5    36     22.9   850.9    0.00     379    55.9
 116   16:00   56.9    20   19.0    37     26.4   850.8    0.00     356    55.9
 116   16:10   56.8    19   16.9    39     24.5   850.8    0.00     336    55.8
 116   16:20   56.9    20   16.4    37     22.3   850.8    0.00     306    55.7
 116   16:30   56.7    19   15.8    43     23.2   850.8    0.00     276    55.7
 116   16:40   56.6    20   17.5    37     24.0   850.8    0.00     260    55.6
 116   16:50   56.2    20   20.3    46     26.4   850.8    0.00     233    55.6

Return to St. George, Utah graphs page.


Western Regional Climate Center,wrcc@dri.edu